sensor_id;sensor_type;location;lat;lon;timestamp;pressure;altitude;pressure_sealevel;temperature;humidity
25610;BME280;13479;49.044;8.716;2023-05-27T04:01:54;99714.34;;;13.24;54.19
25610;BME280;13479;49.044;8.716;2023-05-27T04:04:20;99706.81;;;13.29;53.94
25610;BME280;13479;49.044;8.716;2023-05-27T04:06:45;99716.34;;;13.32;53.72
25610;BME280;13479;49.044;8.716;2023-05-27T04:09:10;99733.03;;;13.46;53.39
25610;BME280;13479;49.044;8.716;2023-05-27T04:11:35;99737.28;;;13.37;53.21
25610;BME280;13479;49.044;8.716;2023-05-27T04:14:01;99731.84;;;13.38;53.45
25610;BME280;13479;49.044;8.716;2023-05-27T04:16:26;99734.72;;;13.47;53.03
25610;BME280;13479;49.044;8.716;2023-05-27T04:18:56;99741.34;;;13.52;53.19
25610;BME280;13479;49.044;8.716;2023-05-27T04:21:21;99745.16;;;13.59;52.77
25610;BME280;13479;49.044;8.716;2023-05-27T04:23:47;99751.38;;;13.70;52.17
25610;BME280;13479;49.044;8.716;2023-05-27T04:26:13;99751.91;;;13.64;52.41
25610;BME280;13479;49.044;8.716;2023-05-27T04:28:39;99748.00;;;13.68;52.59
25610;BME280;13479;49.044;8.716;2023-05-27T04:31:05;99767.72;;;13.86;51.70
25610;BME280;13479;49.044;8.716;2023-05-27T04:33:31;99761.84;;;13.93;51.78
25610;BME280;13479;49.044;8.716;2023-05-27T04:35:56;99756.94;;;13.98;51.56
25610;BME280;13479;49.044;8.716;2023-05-27T04:38:22;99759.34;;;14.01;51.07
25610;BME280;13479;49.044;8.716;2023-05-27T04:40:51;99762.03;;;14.01;51.21
25610;BME280;13479;49.044;8.716;2023-05-27T04:43:18;99755.97;;;13.99;50.90
25610;BME280;13479;49.044;8.716;2023-05-27T04:45:44;99750.47;;;14.00;50.72
25610;BME280;13479;49.044;8.716;2023-05-27T04:48:09;99759.34;;;14.11;50.93
25610;BME280;13479;49.044;8.716;2023-05-27T04:50:35;99758.53;;;14.10;50.87
25610;BME280;13479;49.044;8.716;2023-05-27T04:53:00;99747.56;;;14.13;51.10
25610;BME280;13479;49.044;8.716;2023-05-27T04:55:27;99761.66;;;14.25;50.16
25610;BME280;13479;49.044;8.716;2023-05-27T04:57:53;99752.38;;;14.29;50.35
25610;BME280;13479;49.044;8.716;2023-05-27T05:00:19;99759.13;;;14.43;49.62
25610;BME280;13479;49.044;8.716;2023-05-27T05:02:48;99757.31;;;14.54;49.44
25610;BME280;13479;49.044;8.716;2023-05-27T05:05:13;99758.31;;;14.62;49.28
25610;BME280;13479;49.044;8.716;2023-05-27T05:07:40;99755.81;;;14.71;49.21
25610;BME280;13479;49.044;8.716;2023-05-27T05:10:07;99755.22;;;14.87;49.20
25610;BME280;13479;49.044;8.716;2023-05-27T05:12:33;99757.19;;;14.94;48.91
25610;BME280;13479;49.044;8.716;2023-05-27T05:14:59;99760.50;;;15.26;48.06
25610;BME280;13479;49.044;8.716;2023-05-27T05:17:24;99768.00;;;16.26;46.23
25610;BME280;13479;49.044;8.716;2023-05-27T05:19:51;99768.78;;;17.35;43.55
25610;BME280;13479;49.044;8.716;2023-05-27T05:22:17;99763.00;;;18.25;41.70
25610;BME280;13479;49.044;8.716;2023-05-27T05:24:47;99788.13;;;18.92;39.80
25610;BME280;13479;49.044;8.716;2023-05-27T05:27:12;99788.09;;;19.58;39.09
25610;BME280;13479;49.044;8.716;2023-05-27T05:29:37;99807.19;;;20.36;37.75
25610;BME280;13479;49.044;8.716;2023-05-27T05:35:25;99813.97;;;21.93;34.76
25610;BME280;13479;49.044;8.716;2023-05-27T05:37:50;99816.38;;;22.18;33.68
25610;BME280;13479;49.044;8.716;2023-05-27T05:40:16;99837.66;;;22.58;33.00
25610;BME280;13479;49.044;8.716;2023-05-27T05:42:41;99842.06;;;22.80;32.38
25610;BME280;13479;49.044;8.716;2023-05-27T05:45:07;99844.03;;;23.08;32.45
25610;BME280;13479;49.044;8.716;2023-05-27T05:47:34;99838.03;;;23.35;31.94
25610;BME280;13479;49.044;8.716;2023-05-27T05:50:00;99839.31;;;23.39;31.92
25610;BME280;13479;49.044;8.716;2023-05-27T05:52:25;99849.03;;;23.55;31.32
25610;BME280;13479;49.044;8.716;2023-05-27T05:54:50;99847.03;;;23.70;31.12
25610;BME280;13479;49.044;8.716;2023-05-27T05:57:16;99847.13;;;23.84;30.97
25610;BME280;13479;49.044;8.716;2023-05-27T05:59:41;99858.38;;;24.16;30.31
25610;BME280;13479;49.044;8.716;2023-05-27T06:02:06;99851.09;;;24.16;30.40
25610;BME280;13479;49.044;8.716;2023-05-27T06:04:32;99848.47;;;24.43;30.04
25610;BME280;13479;49.044;8.716;2023-05-27T06:06:57;99853.16;;;24.63;29.36
25610;BME280;13479;49.044;8.716;2023-05-27T06:09:23;99857.09;;;24.67;29.63
25610;BME280;13479;49.044;8.716;2023-05-27T06:15:43;99857.09;;;24.05;29.97
25610;BME280;13479;49.044;8.716;2023-05-27T07:21:12;99870.22;;;30.22;22.99
25610;BME280;13479;49.044;8.716;2023-05-27T07:23:38;99873.38;;;30.55;22.26
25610;BME280;13479;49.044;8.716;2023-05-27T07:26:03;99862.81;;;30.63;23.11
25610;BME280;13479;49.044;8.716;2023-05-27T07:28:28;99875.19;;;31.24;22.21
25610;BME280;13479;49.044;8.716;2023-05-27T07:30:53;99859.69;;;31.86;21.50
25610;BME280;13479;49.044;8.716;2023-05-27T07:33:19;99859.78;;;32.85;21.13
25610;BME280;13479;49.044;8.716;2023-05-27T07:35:44;99851.31;;;32.92;20.45
25610;BME280;13479;49.044;8.716;2023-05-27T07:38:10;99858.97;;;33.17;20.60
25610;BME280;13479;49.044;8.716;2023-05-27T07:40:35;99850.91;;;32.28;20.35
25610;BME280;13479;49.044;8.716;2023-05-27T07:43:01;99851.31;;;32.20;21.07
25610;BME280;13479;49.044;8.716;2023-05-27T07:45:26;99854.13;;;32.03;21.10
25610;BME280;13479;49.044;8.716;2023-05-27T07:47:51;99852.78;;;32.06;21.04
25610;BME280;13479;49.044;8.716;2023-05-27T07:50:16;99846.63;;;32.87;20.68
25610;BME280;13479;49.044;8.716;2023-05-27T07:52:42;99851.63;;;32.95;19.86
25610;BME280;13479;49.044;8.716;2023-05-27T07:55:08;99844.91;;;32.81;20.35
25610;BME280;13479;49.044;8.716;2023-05-27T07:57:33;99844.56;;;33.05;20.61
25610;BME280;13479;49.044;8.716;2023-05-27T07:59:58;99845.66;;;33.79;19.52
25610;BME280;13479;49.044;8.716;2023-05-27T08:02:24;99837.56;;;34.10;19.14
25610;BME280;13479;49.044;8.716;2023-05-27T08:04:50;99829.16;;;33.79;19.44
25610;BME280;13479;49.044;8.716;2023-05-27T08:07:15;99829.72;;;33.81;19.51
25610;BME280;13479;49.044;8.716;2023-05-27T08:09:41;99827.16;;;33.26;19.79
25610;BME280;13479;49.044;8.716;2023-05-27T08:12:06;99829.50;;;32.80;20.85
25610;BME280;13479;49.044;8.716;2023-05-27T08:14:32;99828.22;;;32.65;20.20
25610;BME280;13479;49.044;8.716;2023-05-27T08:16:57;99830.44;;;32.19;20.64
25610;BME280;13479;49.044;8.716;2023-05-27T08:19:23;99812.13;;;31.24;21.68
25610;BME280;13479;49.044;8.716;2023-05-27T08:21:48;99805.69;;;31.52;21.34
25610;BME280;13479;49.044;8.716;2023-05-27T08:24:13;99791.78;;;32.03;21.14
25610;BME280;13479;49.044;8.716;2023-05-27T08:26:39;99790.78;;;31.48;21.31
25610;BME280;13479;49.044;8.716;2023-05-27T08:29:05;99780.13;;;31.91;21.47
25610;BME280;13479;49.044;8.716;2023-05-27T08:31:30;99778.06;;;32.03;21.35
25610;BME280;13479;49.044;8.716;2023-05-27T08:33:55;99774.31;;;32.10;21.28
25610;BME280;13479;49.044;8.716;2023-05-27T08:36:21;99768.75;;;32.54;21.08
25610;BME280;13479;49.044;8.716;2023-05-27T08:38:47;99784.50;;;33.29;20.40
25610;BME280;13479;49.044;8.716;2023-05-27T08:41:13;99780.59;;;34.26;19.55
25610;BME280;13479;49.044;8.716;2023-05-27T08:43:38;99778.25;;;34.92;18.96
25610;BME280;13479;49.044;8.716;2023-05-27T08:46:04;99782.06;;;35.37;18.78
25610;BME280;13479;49.044;8.716;2023-05-27T08:48:30;99787.84;;;35.25;18.83
25610;BME280;13479;49.044;8.716;2023-05-27T08:50:55;99792.81;;;35.29;18.78
25610;BME280;13479;49.044;8.716;2023-05-27T08:53:22;99790.38;;;35.17;18.95
25610;BME280;13479;49.044;8.716;2023-05-27T08:55:50;99799.47;;;34.76;19.07
25610;BME280;13479;49.044;8.716;2023-05-27T08:58:17;99797.50;;;34.51;19.24
25610;BME280;13479;49.044;8.716;2023-05-27T09:00:43;99799.38;;;33.76;19.92
25610;BME280;13479;49.044;8.716;2023-05-27T09:03:09;99786.19;;;32.92;20.84
25610;BME280;13479;49.044;8.716;2023-05-27T09:05:35;99777.47;;;32.73;21.16
25610;BME280;13479;49.044;8.716;2023-05-27T09:08:00;99759.81;;;32.37;21.17
25610;BME280;13479;49.044;8.716;2023-05-27T09:10:36;99762.03;;;32.17;21.77
25610;BME280;13479;49.044;8.716;2023-05-27T09:13:02;99757.94;;;32.20;21.77
25610;BME280;13479;49.044;8.716;2023-05-27T09:15:28;99750.41;;;31.66;22.20
25610;BME280;13479;49.044;8.716;2023-05-27T09:17:55;99733.50;;;31.96;22.25
25610;BME280;13479;49.044;8.716;2023-05-27T09:20:25;99747.72;;;32.15;21.93
25610;BME280;13479;49.044;8.716;2023-05-27T09:22:59;99743.72;;;32.50;22.04
25610;BME280;13479;49.044;8.716;2023-05-27T09:25:27;99725.69;;;33.35;21.46
25610;BME280;13479;49.044;8.716;2023-05-27T09:27:53;99740.69;;;33.17;20.52
25610;BME280;13479;49.044;8.716;2023-05-27T09:30:20;99731.00;;;33.47;20.92
25610;BME280;13479;49.044;8.716;2023-05-27T09:32:45;99741.09;;;33.90;20.68
25610;BME280;13479;49.044;8.716;2023-05-27T09:35:12;99741.19;;;34.31;20.20
25610;BME280;13479;49.044;8.716;2023-05-27T09:37:37;99744.94;;;33.88;20.55
25610;BME280;13479;49.044;8.716;2023-05-27T09:40:06;99755.28;;;33.61;20.56
25610;BME280;13479;49.044;8.716;2023-05-27T09:45:11;99745.03;;;33.08;20.79
25610;BME280;13479;49.044;8.716;2023-05-27T09:47:48;99740.13;;;31.73;22.04
25610;BME280;13479;49.044;8.716;2023-05-27T09:50:15;99732.78;;;31.79;22.67
25610;BME280;13479;49.044;8.716;2023-05-27T09:52:41;99724.88;;;32.10;22.39
25610;BME280;13479;49.044;8.716;2023-05-27T09:55:09;99718.69;;;32.47;21.78
25610;BME280;13479;49.044;8.716;2023-05-27T09:57:36;99704.06;;;32.74;22.32
25610;BME280;13479;49.044;8.716;2023-05-27T10:00:03;99706.16;;;32.94;22.06
25610;BME280;13479;49.044;8.716;2023-05-27T10:02:47;99704.06;;;32.74;21.65
25610;BME280;13479;49.044;8.716;2023-05-27T10:05:14;99719.00;;;32.01;22.42
25610;BME280;13479;49.044;8.716;2023-05-27T10:07:42;99697.81;;;31.96;22.74
25610;BME280;13479;49.044;8.716;2023-05-27T10:10:09;99692.91;;;31.98;23.17
25610;BME280;13479;49.044;8.716;2023-05-27T10:12:37;99686.84;;;31.96;22.54
25610;BME280;13479;49.044;8.716;2023-05-27T10:15:03;99678.00;;;32.49;22.69
25610;BME280;13479;49.044;8.716;2023-05-27T10:17:46;99687.03;;;32.77;22.14
25610;BME280;13479;49.044;8.716;2023-05-27T10:20:12;99691.31;;;32.62;22.10
25610;BME280;13479;49.044;8.716;2023-05-27T10:22:45;99701.06;;;32.43;21.98
25610;BME280;13479;49.044;8.716;2023-05-27T10:25:14;99702.13;;;31.87;23.09
25610;BME280;13479;49.044;8.716;2023-05-27T10:27:46;99690.88;;;31.66;23.16
25610;BME280;13479;49.044;8.716;2023-05-27T10:30:15;99679.00;;;31.61;23.56
25610;BME280;13479;49.044;8.716;2023-05-27T10:32:48;99674.34;;;31.61;23.08
25610;BME280;13479;49.044;8.716;2023-05-27T10:35:15;99662.66;;;31.49;23.44
25610;BME280;13479;49.044;8.716;2023-05-27T10:37:41;99663.50;;;31.49;23.72
25610;BME280;13479;49.044;8.716;2023-05-27T10:40:07;99664.69;;;31.36;23.58
25610;BME280;13479;49.044;8.716;2023-05-27T10:42:33;99657.63;;;31.18;23.96
25610;BME280;13479;49.044;8.716;2023-05-27T10:45:09;99653.59;;;30.87;24.63
25610;BME280;13479;49.044;8.716;2023-05-27T10:47:36;99653.69;;;30.58;24.99
25610;BME280;13479;49.044;8.716;2023-05-27T10:50:10;99647.66;;;30.56;25.02
25610;BME280;13479;49.044;8.716;2023-05-27T10:52:37;99653.69;;;30.58;24.83
25610;BME280;13479;49.044;8.716;2023-05-27T10:55:04;99645.72;;;30.56;24.78
25610;BME280;13479;49.044;8.716;2023-05-27T10:57:30;99632.75;;;30.34;24.47
25610;BME280;13479;49.044;8.716;2023-05-27T11:00:00;99638.06;;;29.95;25.55
25610;BME280;13479;49.044;8.716;2023-05-27T11:02:30;99637.44;;;29.23;26.49
25610;BME280;13479;49.044;8.716;2023-05-27T11:05:00;99617.84;;;29.03;26.26
25610;BME280;13479;49.044;8.716;2023-05-27T11:07:25;99618.31;;;29.00;26.84
25610;BME280;13479;49.044;8.716;2023-05-27T11:09:53;99612.84;;;29.00;27.53
25610;BME280;13479;49.044;8.716;2023-05-27T11:12:23;99626.28;;;28.54;27.33
25610;BME280;13479;49.044;8.716;2023-05-27T11:14:53;99614.56;;;28.11;28.53
25610;BME280;13479;49.044;8.716;2023-05-27T11:17:20;99606.06;;;27.58;28.55
25610;BME280;13479;49.044;8.716;2023-05-27T11:19:45;99606.66;;;26.86;29.44
25610;BME280;13479;49.044;8.716;2023-05-27T11:22:12;99617.00;;;26.51;30.01
25610;BME280;13479;49.044;8.716;2023-05-27T11:24:37;99596.19;;;26.13;31.01
25610;BME280;13479;49.044;8.716;2023-05-27T11:27:14;99597.31;;;25.92;31.61
25610;BME280;13479;49.044;8.716;2023-05-27T11:29:47;99590.38;;;25.71;32.34
25610;BME280;13479;49.044;8.716;2023-05-27T11:32:15;99572.47;;;25.50;32.19
25610;BME280;13479;49.044;8.716;2023-05-27T11:34:43;99580.03;;;25.34;32.80
25610;BME280;13479;49.044;8.716;2023-05-27T11:37:09;99576.38;;;25.15;32.18
25610;BME280;13479;49.044;8.716;2023-05-27T11:39:34;99559.66;;;25.11;33.08
25610;BME280;13479;49.044;8.716;2023-05-27T11:41:59;99562.53;;;25.23;33.34
25610;BME280;13479;49.044;8.716;2023-05-27T11:44:25;99550.63;;;25.24;33.27
25610;BME280;13479;49.044;8.716;2023-05-27T11:46:57;99531.00;;;25.16;33.26
25610;BME280;13479;49.044;8.716;2023-05-27T11:49:23;99533.66;;;25.42;33.61
25610;BME280;13479;49.044;8.716;2023-05-27T11:51:49;99540.19;;;25.21;32.75
25610;BME280;13479;49.044;8.716;2023-05-27T11:54:30;99524.59;;;24.96;32.89
25610;BME280;13479;49.044;8.716;2023-05-27T11:56:56;99515.00;;;24.94;32.97
25610;BME280;13479;49.044;8.716;2023-05-27T11:59:23;99516.84;;;25.00;32.98
25610;BME280;13479;49.044;8.716;2023-05-27T12:01:50;99516.47;;;24.96;33.48
25610;BME280;13479;49.044;8.716;2023-05-27T12:04:16;99510.91;;;24.78;32.54
25610;BME280;13479;49.044;8.716;2023-05-27T12:06:43;99499.41;;;24.76;32.94
25610;BME280;13479;49.044;8.716;2023-05-27T12:09:09;99495.00;;;24.81;33.66
25610;BME280;13479;49.044;8.716;2023-05-27T12:11:35;99502.25;;;24.94;32.21
25610;BME280;13479;49.044;8.716;2023-05-27T12:14:01;99495.75;;;25.02;32.09
25610;BME280;13479;49.044;8.716;2023-05-27T12:16:27;99498.94;;;24.92;32.37
25610;BME280;13479;49.044;8.716;2023-05-27T12:18:52;99472.59;;;24.93;32.61
25610;BME280;13479;49.044;8.716;2023-05-27T12:21:18;99492.25;;;24.95;31.68
25610;BME280;13479;49.044;8.716;2023-05-27T12:23:43;99463.22;;;24.89;32.35
25610;BME280;13479;49.044;8.716;2023-05-27T12:26:09;99479.84;;;25.06;32.40
25610;BME280;13479;49.044;8.716;2023-05-27T12:28:37;99483.19;;;25.08;32.07
25610;BME280;13479;49.044;8.716;2023-05-27T12:31:02;99496.28;;;24.79;31.91
25610;BME280;13479;49.044;8.716;2023-05-27T12:33:28;99486.28;;;24.59;31.63
25610;BME280;13479;49.044;8.716;2023-05-27T12:35:53;99476.25;;;24.53;32.29
25610;BME280;13479;49.044;8.716;2023-05-27T12:38:18;99468.75;;;24.55;32.50
25610;BME280;13479;49.044;8.716;2023-05-27T12:40:44;99456.44;;;24.59;32.52
25610;BME280;13479;49.044;8.716;2023-05-27T12:43:09;99484.00;;;24.70;31.64
25610;BME280;13479;49.044;8.716;2023-05-27T12:45:35;99463.94;;;24.57;32.67
25610;BME280;13479;49.044;8.716;2023-05-27T12:48:00;99452.47;;;24.55;32.77
25610;BME280;13479;49.044;8.716;2023-05-27T12:50:26;99449.06;;;24.80;33.09
25610;BME280;13479;49.044;8.716;2023-05-27T12:52:51;99455.13;;;24.82;31.74
25610;BME280;13479;49.044;8.716;2023-05-27T12:55:18;99451.56;;;24.81;32.04
25610;BME280;13479;49.044;8.716;2023-05-27T12:57:45;99446.56;;;24.78;33.08
25610;BME280;13479;49.044;8.716;2023-05-27T13:00:11;99452.84;;;24.79;32.08
25610;BME280;13479;49.044;8.716;2023-05-27T13:02:37;99452.84;;;24.79;31.62
25610;BME280;13479;49.044;8.716;2023-05-27T13:05:06;99439.69;;;24.76;31.96
25610;BME280;13479;49.044;8.716;2023-05-27T13:07:36;99454.22;;;24.95;31.65
25610;BME280;13479;49.044;8.716;2023-05-27T13:10:03;99452.78;;;24.92;31.76
25610;BME280;13479;49.044;8.716;2023-05-27T13:12:30;99455.91;;;24.89;31.58
25610;BME280;13479;49.044;8.716;2023-05-27T13:14:57;99451.78;;;24.80;31.97
25610;BME280;13479;49.044;8.716;2023-05-27T13:17:22;99452.84;;;24.79;30.85
25610;BME280;13479;49.044;8.716;2023-05-27T13:19:48;99448.88;;;24.75;32.06
25610;BME280;13479;49.044;8.716;2023-05-27T13:22:13;99440.31;;;24.71;31.58
25610;BME280;13479;49.044;8.716;2023-05-27T13:24:39;99430.75;;;24.69;31.97
25610;BME280;13479;49.044;8.716;2023-05-27T13:27:04;99419.44;;;24.72;31.74
25610;BME280;13479;49.044;8.716;2023-05-27T13:29:30;99426.09;;;24.82;31.32
25610;BME280;13479;49.044;8.716;2023-05-27T13:31:55;99424.38;;;24.88;32.37
25610;BME280;13479;49.044;8.716;2023-05-27T13:34:20;99434.31;;;25.08;30.96
25610;BME280;13479;49.044;8.716;2023-05-27T13:36:46;99441.56;;;25.21;29.94
25610;BME280;13479;49.044;8.716;2023-05-27T13:39:11;99437.53;;;24.91;31.17
25610;BME280;13479;49.044;8.716;2023-05-27T13:41:36;99436.94;;;24.82;31.29
25610;BME280;13479;49.044;8.716;2023-05-27T13:44:02;99440.69;;;24.88;30.74
25610;BME280;13479;49.044;8.716;2023-05-27T13:46:27;99428.16;;;24.87;31.25
25610;BME280;13479;49.044;8.716;2023-05-27T13:48:52;99422.53;;;24.82;31.38
25610;BME280;13479;49.044;8.716;2023-05-27T13:51:18;99417.28;;;24.87;31.55
25610;BME280;13479;49.044;8.716;2023-05-27T13:53:43;99433.31;;;24.95;30.80
25610;BME280;13479;49.044;8.716;2023-05-27T13:56:08;99417.28;;;24.87;30.73
25610;BME280;13479;49.044;8.716;2023-05-27T13:58:34;99406.94;;;24.71;31.71
25610;BME280;13479;49.044;8.716;2023-05-27T14:00:59;99411.91;;;24.74;30.85
25610;BME280;13479;49.044;8.716;2023-05-27T14:03:24;99401.50;;;24.71;31.21
25610;BME280;13479;49.044;8.716;2023-05-27T14:05:50;99396.09;;;24.57;31.68
25610;BME280;13479;49.044;8.716;2023-05-27T14:08:16;99394.41;;;24.70;31.56
25610;BME280;13479;49.044;8.716;2023-05-27T14:10:41;99398.13;;;24.75;30.32
25610;BME280;13479;49.044;8.716;2023-05-27T14:13:06;99393.31;;;24.77;31.20
25610;BME280;13479;49.044;8.716;2023-05-27T14:15:32;99389.97;;;24.82;30.75
25610;BME280;13479;49.044;8.716;2023-05-27T14:17:57;99402.25;;;24.91;30.77
25610;BME280;13479;49.044;8.716;2023-05-27T14:20:25;99393.50;;;24.82;30.17
25610;BME280;13479;49.044;8.716;2023-05-27T14:22:50;99381.75;;;24.89;30.69
25610;BME280;13479;49.044;8.716;2023-05-27T14:25:16;99383.22;;;24.91;30.49
25610;BME280;13479;49.044;8.716;2023-05-27T14:27:41;99387.59;;;24.92;30.51
25610;BME280;13479;49.044;8.716;2023-05-27T14:30:07;99381.13;;;24.93;30.27
25610;BME280;13479;49.044;8.716;2023-05-27T14:32:33;99371.88;;;25.01;29.90
25610;BME280;13479;49.044;8.716;2023-05-27T14:34:58;99370.16;;;25.07;29.79
25610;BME280;13479;49.044;8.716;2023-05-27T14:37:23;99378.66;;;25.17;28.97
25610;BME280;13479;49.044;8.716;2023-05-27T14:39:51;99383.22;;;25.23;28.92
25610;BME280;13479;49.044;8.716;2023-05-27T14:42:16;99373.13;;;25.31;28.06
25610;BME280;13479;49.044;8.716;2023-05-27T14:44:41;99376.13;;;25.22;28.29
25610;BME280;13479;49.044;8.716;2023-05-27T14:47:07;99383.69;;;25.13;28.43
25610;BME280;13479;49.044;8.716;2023-05-27T14:49:32;99372.44;;;25.10;28.43
25610;BME280;13479;49.044;8.716;2023-05-27T14:51:57;99379.75;;;25.16;28.82
25610;BME280;13479;49.044;8.716;2023-05-27T14:54:23;99385.94;;;25.23;28.24
25610;BME280;13479;49.044;8.716;2023-05-27T14:56:48;99377.56;;;25.25;28.39
25610;BME280;13479;49.044;8.716;2023-05-27T14:59:13;99369.47;;;25.18;28.16
25610;BME280;13479;49.044;8.716;2023-05-27T15:01:39;99380.50;;;25.23;28.09
25610;BME280;13479;49.044;8.716;2023-05-27T15:04:04;99386.28;;;25.34;27.87
25610;BME280;13479;49.044;8.716;2023-05-27T15:06:30;99387.72;;;25.36;27.81
25610;BME280;13479;49.044;8.716;2023-05-27T15:08:56;99382.78;;;25.26;27.89
25610;BME280;13479;49.044;8.716;2023-05-27T15:11:21;99385.38;;;25.40;26.86
25610;BME280;13479;49.044;8.716;2023-05-27T15:13:46;99379.38;;;25.38;26.29
25610;BME280;13479;49.044;8.716;2023-05-27T15:16:12;99380.25;;;25.32;26.68
25610;BME280;13479;49.044;8.716;2023-05-27T15:18:37;99381.91;;;25.33;25.35
25610;BME280;13479;49.044;8.716;2023-05-27T15:21:02;99382.56;;;25.28;26.01
25610;BME280;13479;49.044;8.716;2023-05-27T15:23:27;99381.94;;;25.26;26.23
25610;BME280;13479;49.044;8.716;2023-05-27T15:25:53;99380.31;;;25.18;26.81
25610;BME280;13479;49.044;8.716;2023-05-27T15:28:18;99368.25;;;25.14;26.59
25610;BME280;13479;49.044;8.716;2023-05-27T15:30:44;99373.22;;;25.17;26.20
25610;BME280;13479;49.044;8.716;2023-05-27T15:33:09;99356.56;;;25.07;26.88
25610;BME280;13479;49.044;8.716;2023-05-27T15:35:34;99371.22;;;25.06;26.63
25610;BME280;13479;49.044;8.716;2023-05-27T15:38:00;99370.00;;;25.02;26.47
25610;BME280;13479;49.044;8.716;2023-05-27T15:40:25;99347.44;;;25.01;27.00
25610;BME280;13479;49.044;8.716;2023-05-27T15:42:51;99350.72;;;25.10;26.99
25610;BME280;13479;49.044;8.716;2023-05-27T15:45:16;99341.09;;;25.14;27.11
25610;BME280;13479;49.044;8.716;2023-05-27T15:47:41;99355.41;;;25.28;26.53
25610;BME280;13479;49.044;8.716;2023-05-27T15:50:07;99354.34;;;25.29;26.46
25610;BME280;13479;49.044;8.716;2023-05-27T15:52:32;99351.56;;;25.10;26.48
25610;BME280;13479;49.044;8.716;2023-05-27T15:54:58;99357.72;;;25.24;26.66
25610;BME280;13479;49.044;8.716;2023-05-27T15:57:23;99354.56;;;25.27;26.44
25610;BME280;13479;49.044;8.716;2023-05-27T15:59:48;99358.16;;;25.21;26.33
25610;BME280;13479;49.044;8.716;2023-05-27T16:02:15;99350.69;;;25.17;26.27
25610;BME280;13479;49.044;8.716;2023-05-27T16:04:40;99336.09;;;25.11;27.04
25610;BME280;13479;49.044;8.716;2023-05-27T16:07:06;99340.50;;;25.05;26.80
25610;BME280;13479;49.044;8.716;2023-05-27T16:09:31;99341.28;;;25.12;26.21
25610;BME280;13479;49.044;8.716;2023-05-27T16:11:56;99344.41;;;25.16;26.43
25610;BME280;13479;49.044;8.716;2023-05-27T16:14:21;99326.88;;;25.12;27.34
25610;BME280;13479;49.044;8.716;2023-05-27T16:16:47;99327.03;;;25.17;27.47
25610;BME280;13479;49.044;8.716;2023-05-27T16:19:12;99329.22;;;25.34;26.39
25610;BME280;13479;49.044;8.716;2023-05-27T16:21:39;99325.78;;;25.20;26.74
25610;BME280;13479;49.044;8.716;2023-05-27T16:24:05;99328.38;;;25.08;26.88
25610;BME280;13479;49.044;8.716;2023-05-27T16:26:30;99324.84;;;25.07;27.05
25610;BME280;13479;49.044;8.716;2023-05-27T16:28:55;99315.03;;;25.06;27.54
25610;BME280;13479;49.044;8.716;2023-05-27T16:31:21;99309.97;;;25.10;27.11
25610;BME280;13479;49.044;8.716;2023-05-27T16:33:46;99312.31;;;25.06;27.06
25610;BME280;13479;49.044;8.716;2023-05-27T16:36:12;99309.00;;;24.97;27.22
25610;BME280;13479;49.044;8.716;2023-05-27T16:38:38;99304.63;;;24.96;27.22
25610;BME280;13479;49.044;8.716;2023-05-27T16:41:03;99297.00;;;24.87;28.12
25610;BME280;13479;49.044;8.716;2023-05-27T16:43:29;99295.47;;;24.91;27.64
25610;BME280;13479;49.044;8.716;2023-05-27T16:45:54;99290.28;;;24.89;27.46
25610;BME280;13479;49.044;8.716;2023-05-27T16:48:19;99293.75;;;24.71;28.06
25610;BME280;13479;49.044;8.716;2023-05-27T16:50:45;99296.16;;;24.86;26.92
25610;BME280;13479;49.044;8.716;2023-05-27T16:53:10;99285.94;;;24.81;27.39
25610;BME280;13479;49.044;8.716;2023-05-27T16:55:35;99290.78;;;24.73;27.53
25610;BME280;13479;49.044;8.716;2023-05-27T16:58:01;99291.25;;;24.70;26.99
25610;BME280;13479;49.044;8.716;2023-05-27T17:00:26;99290.88;;;24.59;27.78
25610;BME280;13479;49.044;8.716;2023-05-27T17:02:52;99294.59;;;24.65;27.48
25610;BME280;13479;49.044;8.716;2023-05-27T17:05:18;99280.03;;;24.59;27.77
25610;BME280;13479;49.044;8.716;2023-05-27T17:07:43;99270.41;;;24.57;27.39
25610;BME280;13479;49.044;8.716;2023-05-27T17:10:09;99275.69;;;24.45;28.79
25610;BME280;13479;49.044;8.716;2023-05-27T17:12:34;99262.59;;;24.35;28.83
25610;BME280;13479;49.044;8.716;2023-05-27T17:15:00;99261.31;;;24.37;28.44
25610;BME280;13479;49.044;8.716;2023-05-27T17:17:26;99264.03;;;24.37;28.52
25610;BME280;13479;49.044;8.716;2023-05-27T17:19:51;99260.13;;;24.33;28.67
25610;BME280;13479;49.044;8.716;2023-05-27T17:22:16;99260.13;;;24.33;28.92
25610;BME280;13479;49.044;8.716;2023-05-27T17:24:41;99259.56;;;24.18;28.89
25610;BME280;13479;49.044;8.716;2023-05-27T17:27:09;99254.75;;;24.20;28.43
25610;BME280;13479;49.044;8.716;2023-05-27T17:29:35;99247.28;;;24.09;29.04
25610;BME280;13479;49.044;8.716;2023-05-27T17:32:00;99246.47;;;24.08;29.22
25610;BME280;13479;49.044;8.716;2023-05-27T17:34:26;99247.72;;;24.05;29.24
25610;BME280;13479;49.044;8.716;2023-05-27T17:36:52;99247.53;;;24.00;29.26
25610;BME280;13479;49.044;8.716;2023-05-27T17:39:17;99247.75;;;23.92;30.01
25610;BME280;13479;49.044;8.716;2023-05-27T17:41:42;99251.91;;;24.01;29.75
25610;BME280;13479;49.044;8.716;2023-05-27T17:44:09;99244.81;;;23.94;29.46
25610;BME280;13479;49.044;8.716;2023-05-27T17:46:34;99241.25;;;23.93;29.42
25610;BME280;13479;49.044;8.716;2023-05-27T17:48:59;99246.31;;;23.83;29.46
25610;BME280;13479;49.044;8.716;2023-05-27T17:51:24;99233.00;;;23.74;29.89
25610;BME280;13479;49.044;8.716;2023-05-27T17:53:52;99240.75;;;23.64;30.51
25610;BME280;13479;49.044;8.716;2023-05-27T17:56:19;99239.94;;;23.64;30.81
25610;BME280;13479;49.044;8.716;2023-05-27T17:58:44;99245.34;;;23.64;30.72
25610;BME280;13479;49.044;8.716;2023-05-27T18:01:09;99246.81;;;23.53;30.68
25610;BME280;13479;49.044;8.716;2023-05-27T18:03:35;99247.88;;;23.45;30.72
25610;BME280;13479;49.044;8.716;2023-05-27T18:06:00;99244.75;;;23.41;30.75
25610;BME280;13479;49.044;8.716;2023-05-27T18:08:25;99231.19;;;23.14;31.23